createdAt,value
2019-02-19T00:00:31.899Z,6.50
2019-02-19T00:01:31.930Z,6.56
2019-02-19T00:02:31.920Z,6.45
2019-02-19T00:03:31.909Z,6.37
2019-02-19T00:04:31.852Z,6.34
2019-02-19T00:05:31.860Z,6.32
2019-02-19T00:06:31.828Z,6.18
2019-02-19T00:07:31.823Z,6.24
2019-02-19T00:08:31.806Z,6.25
2019-02-19T00:09:31.842Z,6.15
2019-02-19T00:10:31.784Z,6.09
2019-02-19T00:11:31.781Z,5.97
2019-02-19T00:12:31.768Z,5.85
2019-02-19T00:13:31.750Z,5.91
2019-02-19T00:14:31.783Z,5.93
2019-02-19T00:15:31.731Z,5.93
2019-02-19T00:16:31.717Z,5.85
2019-02-19T00:17:31.705Z,5.90
2019-02-19T00:18:31.702Z,5.91
2019-02-19T00:19:31.683Z,5.90
2019-02-19T00:20:31.863Z,5.94
2019-02-19T00:21:31.662Z,5.91
2019-02-19T00:22:31.649Z,5.91
2019-02-19T00:23:31.639Z,5.91
2019-02-19T00:24:31.670Z,5.94
2019-02-19T00:25:31.618Z,6.00
2019-02-19T00:26:31.606Z,5.97
2019-02-19T00:27:31.593Z,5.98
2019-02-19T00:28:31.585Z,5.97
2019-02-19T00:29:31.572Z,6.05
2019-02-19T00:30:31.606Z,6.08
2019-02-19T00:31:31.552Z,6.12
2019-02-19T00:32:31.542Z,6.06
2019-02-19T00:33:31.528Z,6.12
2019-02-19T00:34:31.567Z,6.09
2019-02-19T00:35:31.507Z,6.15
2019-02-19T00:36:31.497Z,6.13
2019-02-19T00:37:31.483Z,6.18
2019-02-19T00:38:31.475Z,6.18
2019-02-19T00:39:31.502Z,6.28
2019-02-19T00:40:31.493Z,6.24
2019-02-19T00:41:31.443Z,6.37
2019-02-19T00:42:31.430Z,6.35
2019-02-19T00:43:31.447Z,6.35
2019-02-19T00:44:31.448Z,6.40
2019-02-19T00:45:31.401Z,6.38
2019-02-19T00:46:31.385Z,6.46
2019-02-19T00:47:31.374Z,6.34
2019-02-19T00:48:31.365Z,6.37
2019-02-19T00:49:31.350Z,6.35
2019-02-19T00:50:31.379Z,6.35
2019-02-19T00:51:31.341Z,6.35
2019-02-19T00:52:31.319Z,6.38
2019-02-19T00:53:31.306Z,6.37
2019-02-19T00:54:31.297Z,6.37
2019-02-19T00:55:31.332Z,6.38
2019-02-19T00:56:31.277Z,6.40
2019-02-19T00:57:31.262Z,6.32
2019-02-19T00:58:31.251Z,6.34
2019-02-19T00:59:31.241Z,6.35
2019-02-19T01:00:31.230Z,6.38
2019-02-19T01:01:31.264Z,6.38
2019-02-19T01:02:31.214Z,6.37
2019-02-19T01:03:31.196Z,6.37
2019-02-19T01:04:31.193Z,6.34
2019-02-19T01:05:31.173Z,6.47
2019-02-19T01:06:31.168Z,6.38
2019-02-19T01:07:31.192Z,6.43
2019-02-19T01:08:31.186Z,6.35
2019-02-19T01:09:31.130Z,6.32
2019-02-19T01:10:31.118Z,6.32
2019-02-19T01:11:31.151Z,6.25
2019-02-19T01:12:31.095Z,6.32
2019-02-19T01:13:31.139Z,6.30
2019-02-19T01:14:31.074Z,6.35
2019-02-19T01:15:31.068Z,6.35
2019-02-19T01:16:31.053Z,6.30
2019-02-19T01:17:31.043Z,6.34
2019-02-19T01:18:31.031Z,6.40
2019-02-19T01:19:31.062Z,6.35
2019-02-19T01:20:31.007Z,6.46
2019-02-19T01:21:31.025Z,6.35
2019-02-19T01:22:30.989Z,6.46
2019-02-19T01:23:30.977Z,6.46
2019-02-19T01:24:30.963Z,6.49
2019-02-19T01:25:30.999Z,6.43
2019-02-19T01:26:30.991Z,6.34
2019-02-19T01:27:30.933Z,6.31
2019-02-19T01:28:30.985Z,6.32
2019-02-19T01:29:30.911Z,6.25
2019-02-19T01:30:30.897Z,6.16
2019-02-19T01:31:30.886Z,6.16
2019-02-19T01:32:30.895Z,6.21
2019-02-19T01:33:30.868Z,6.19
2019-02-19T01:34:30.904Z,6.30
2019-02-19T01:35:30.843Z,6.25
2019-02-19T01:36:30.832Z,6.25
2019-02-19T01:37:30.820Z,6.15
2019-02-19T01:38:30.812Z,6.15
2019-02-19T01:39:30.804Z,6.21
2019-02-19T01:40:30.842Z,6.24
2019-02-19T01:41:30.775Z,6.34
2019-02-19T01:42:30.768Z,6.34
2019-02-19T01:43:30.775Z,6.28
2019-02-19T01:44:30.742Z,6.34
2019-02-19T01:45:34.158Z,6.31
2019-02-19T01:46:30.781Z,6.24
2019-02-19T01:47:30.709Z,6.32
2019-02-19T01:48:30.699Z,6.37
2019-02-19T01:49:30.702Z,6.42
2019-02-19T01:50:30.675Z,6.52
2019-02-19T01:51:30.667Z,6.38
2019-02-19T01:52:30.693Z,6.35
2019-02-19T01:53:30.687Z,6.42
2019-02-19T01:54:30.635Z,6.50
2019-02-19T01:55:30.623Z,6.43
2019-02-19T01:56:30.613Z,6.42
2019-02-19T01:57:30.646Z,6.50
2019-02-19T01:58:30.589Z,6.43
2019-02-19T01:59:30.577Z,6.31
2019-02-19T02:00:30.566Z,6.42
2019-02-19T02:01:30.554Z,6.45
2019-02-19T02:02:30.552Z,6.31
2019-02-19T02:03:30.583Z,6.21
2019-02-19T02:04:30.522Z,6.30
2019-02-19T02:05:30.511Z,6.34
2019-02-19T02:06:30.523Z,6.28
2019-02-19T02:07:30.488Z,6.34
2019-02-19T02:08:30.523Z,6.35
2019-02-19T02:09:30.468Z,6.32
2019-02-19T02:10:30.455Z,6.18
2019-02-19T02:11:30.453Z,6.24
2019-02-19T02:12:30.435Z,6.18
2019-02-19T02:13:30.472Z,6.27
2019-02-19T02:14:30.415Z,6.09
2019-02-19T02:15:30.401Z,6.08
2019-02-19T02:16:30.388Z,5.94
2019-02-19T02:17:30.382Z,5.82
2019-02-19T02:18:30.371Z,5.85
2019-02-19T02:19:30.398Z,5.82
2019-02-19T02:20:30.348Z,5.80
2019-02-19T02:21:30.335Z,5.75
2019-02-19T02:22:30.327Z,5.75
2019-02-19T02:23:30.314Z,5.73
2019-02-19T02:24:30.344Z,5.82
2019-02-19T02:25:30.344Z,5.85
2019-02-19T02:26:30.280Z,5.76
2019-02-19T02:27:30.268Z,5.67
2019-02-19T02:28:30.262Z,5.69
2019-02-19T02:29:30.257Z,5.70
2019-02-19T02:30:30.264Z,5.66
2019-02-19T02:31:30.265Z,5.70
2019-02-19T02:32:30.219Z,5.52
2019-02-19T02:33:30.204Z,5.61
2019-02-19T02:34:30.192Z,5.51
2019-02-19T02:35:30.226Z,5.44
2019-02-19T02:36:30.169Z,5.34
2019-02-19T02:37:30.204Z,5.44
2019-02-19T02:38:30.148Z,5.51
2019-02-19T02:39:30.143Z,5.54
2019-02-19T02:40:30.131Z,5.57
2019-02-19T02:41:30.114Z,5.62
2019-02-19T02:42:30.156Z,5.62
2019-02-19T02:43:30.097Z,5.59
2019-02-19T02:44:30.086Z,5.65
2019-02-19T02:45:30.114Z,5.62
2019-02-19T02:46:30.101Z,5.72
2019-02-19T02:47:30.053Z,5.66
2019-02-19T02:48:30.040Z,5.76
2019-02-19T02:49:30.028Z,5.72
2019-02-19T02:50:30.017Z,5.66
2019-02-19T02:51:30.014Z,5.69
2019-02-19T02:52:30.039Z,5.66
2019-02-19T02:53:30.006Z,5.73
2019-02-19T02:54:29.971Z,5.59
2019-02-19T02:55:29.963Z,5.65
2019-02-19T02:56:29.949Z,5.62
2019-02-19T02:57:29.943Z,5.66
2019-02-19T02:58:29.971Z,5.52
2019-02-19T02:59:29.922Z,5.47
2019-02-19T03:00:29.950Z,5.39
2019-02-19T03:01:29.901Z,5.29
2019-02-19T03:02:29.884Z,5.21
2019-02-19T03:03:29.874Z,5.25
2019-02-19T03:04:29.902Z,5.19
2019-02-19T03:05:29.851Z,5.16
2019-02-19T03:06:29.842Z,5.14
2019-02-19T03:07:29.831Z,5.22
2019-02-19T03:08:29.868Z,5.19
2019-02-19T03:09:29.849Z,5.25
2019-02-19T03:10:29.826Z,5.27
2019-02-19T03:11:29.842Z,5.40
2019-02-19T03:12:29.776Z,5.32
2019-02-19T03:13:29.766Z,5.39
2019-02-19T03:14:29.801Z,5.40
2019-02-19T03:15:29.746Z,5.36
2019-02-19T03:16:29.736Z,5.50
2019-02-19T03:17:29.721Z,5.58
2019-02-19T03:18:29.713Z,5.72
2019-02-19T03:19:29.698Z,5.91
2019-02-19T03:20:29.740Z,6.03
2019-02-19T03:21:29.678Z,6.09
2019-02-19T03:22:29.708Z,6.16
2019-02-19T03:23:29.668Z,6.30
2019-02-19T03:24:29.644Z,6.32
2019-02-19T03:25:29.631Z,6.34
2019-02-19T03:26:29.627Z,6.32
2019-02-19T03:27:29.651Z,6.24
2019-02-19T03:28:29.599Z,6.32
2019-02-19T03:29:29.632Z,6.28
2019-02-19T03:30:29.581Z,6.31
2019-02-19T03:31:29.608Z,6.24
2019-02-19T03:32:29.577Z,6.27
2019-02-19T03:33:29.585Z,6.31
2019-02-19T03:34:29.539Z,6.25
2019-02-19T03:35:29.522Z,6.30
2019-02-19T03:36:29.516Z,6.28
2019-02-19T03:37:29.543Z,6.32
2019-02-19T03:38:29.488Z,6.27
2019-02-19T03:39:29.480Z,6.32
2019-02-19T03:40:29.481Z,6.34
2019-02-19T03:41:29.460Z,6.32
2019-02-19T03:42:29.489Z,6.28
2019-02-19T03:43:29.438Z,6.19
2019-02-19T03:44:29.424Z,6.35
2019-02-19T03:45:29.411Z,6.28
2019-02-19T03:46:30.460Z,6.19
2019-02-19T03:47:29.396Z,6.31
2019-02-19T03:48:29.423Z,6.28
2019-02-19T03:49:29.424Z,6.34
2019-02-19T03:50:29.361Z,6.38
2019-02-19T03:51:29.361Z,6.45
2019-02-19T03:52:29.377Z,6.40
2019-02-19T03:53:29.325Z,6.49
2019-02-19T03:54:29.316Z,6.38
2019-02-19T03:55:29.315Z,6.40
2019-02-19T03:56:29.291Z,6.34
2019-02-19T03:57:29.288Z,6.31
2019-02-19T03:58:29.322Z,6.19
2019-02-19T03:59:29.260Z,6.25
2019-02-19T04:00:29.258Z,6.18
2019-02-19T04:01:29.275Z,6.28
2019-02-19T04:02:29.224Z,6.28
2019-02-19T04:03:29.213Z,6.30
2019-02-19T04:04:29.207Z,6.34
2019-02-19T04:05:29.237Z,6.35
2019-02-19T04:06:29.199Z,6.43
2019-02-19T04:07:29.175Z,6.45
2019-02-19T04:08:29.218Z,6.40
2019-02-19T04:09:29.159Z,6.52
2019-02-19T04:10:29.136Z,6.50
2019-02-19T04:11:29.166Z,6.57
2019-02-19T04:12:29.114Z,6.68
2019-02-19T04:13:29.102Z,6.64
2019-02-19T04:14:29.139Z,6.65
2019-02-19T04:15:29.082Z,6.79
2019-02-19T04:16:29.069Z,6.83
2019-02-19T04:17:29.059Z,7.01
2019-02-19T04:18:29.051Z,6.96
2019-02-19T04:19:29.039Z,7.01
2019-02-19T04:20:29.065Z,7.07
2019-02-19T04:21:29.014Z,7.10
2019-02-19T04:22:29.002Z,7.13
2019-02-19T04:23:28.995Z,7.21
2019-02-19T04:24:28.979Z,7.26
2019-02-19T04:25:29.012Z,7.29
2019-02-19T04:26:29.017Z,7.29
2019-02-19T04:27:28.949Z,7.26
2019-02-19T04:28:28.935Z,7.29
2019-02-19T04:29:28.924Z,7.39
2019-02-19T04:30:28.914Z,7.31
2019-02-19T04:31:28.952Z,7.34
2019-02-19T04:32:28.911Z,7.24
2019-02-19T04:33:28.894Z,7.26
2019-02-19T04:34:28.874Z,7.43
2019-02-19T04:35:28.859Z,7.29
2019-02-19T04:36:28.847Z,7.31
2019-02-19T04:37:30.017Z,7.36
2019-02-19T04:38:28.834Z,7.34
2019-02-19T04:39:28.855Z,7.29
2019-02-19T04:40:28.808Z,7.31
2019-02-19T04:41:28.790Z,7.29
2019-02-19T04:42:28.788Z,7.44
2019-02-19T04:43:28.771Z,7.39
2019-02-19T04:44:28.803Z,7.42
2019-02-19T04:45:28.750Z,7.43
2019-02-19T04:46:31.769Z,7.40
2019-02-19T04:47:28.723Z,7.29
2019-02-19T04:48:28.714Z,7.16
2019-02-19T04:49:28.702Z,7.21
2019-02-19T04:50:28.736Z,7.25
2019-02-19T04:51:28.685Z,7.31
2019-02-19T04:52:28.669Z,7.42
2019-02-19T04:53:28.660Z,7.42
2019-02-19T04:54:28.689Z,7.42
2019-02-19T04:55:28.658Z,7.55
2019-02-19T04:56:28.624Z,7.61
2019-02-19T04:57:28.615Z,7.52
2019-02-19T04:58:28.601Z,7.52
2019-02-19T04:59:28.590Z,7.50
2019-02-19T05:00:28.620Z,7.43
2019-02-19T05:01:28.606Z,7.42
2019-02-19T05:02:28.557Z,7.29
2019-02-19T05:03:28.545Z,7.24
2019-02-19T05:04:28.544Z,7.18
2019-02-19T05:05:28.540Z,7.21
2019-02-19T05:06:28.555Z,7.26
2019-02-19T05:07:28.506Z,7.18
2019-02-19T05:08:28.491Z,7.21
2019-02-19T05:09:28.483Z,7.31
2019-02-19T05:10:28.468Z,7.26
2019-02-19T05:11:28.455Z,7.26
2019-02-19T05:12:28.486Z,7.24
2019-02-19T05:13:28.435Z,7.16
2019-02-19T05:14:28.425Z,7.13
2019-02-19T05:15:28.411Z,7.13
2019-02-19T05:16:28.402Z,7.10
2019-02-19T05:17:28.390Z,7.07
2019-02-19T05:18:28.418Z,7.07
2019-02-19T05:19:28.369Z,7.15
2019-02-19T05:20:28.359Z,7.22
2019-02-19T05:21:28.346Z,7.28
2019-02-19T05:22:28.379Z,7.31
2019-02-19T05:23:28.360Z,7.29
2019-02-19T05:24:28.312Z,7.44
2019-02-19T05:25:28.307Z,7.44
2019-02-19T05:26:28.302Z,7.43
2019-02-19T05:27:28.277Z,7.44
2019-02-19T05:28:28.308Z,7.57
2019-02-19T05:29:28.300Z,7.68
2019-02-19T05:30:28.249Z,7.64
2019-02-19T05:31:28.235Z,7.55
2019-02-19T05:32:28.228Z,7.64
2019-02-19T05:33:28.213Z,7.71
2019-02-19T05:34:28.199Z,7.60
2019-02-19T05:35:28.229Z,7.55
2019-02-19T05:36:28.179Z,7.55
2019-02-19T05:37:28.165Z,7.50
2019-02-19T05:38:28.217Z,7.28
2019-02-19T05:39:28.143Z,7.25
2019-02-19T05:40:28.140Z,7.16
2019-02-19T05:41:28.125Z,7.11
2019-02-19T05:42:28.152Z,7.10
2019-02-19T05:43:28.099Z,7.13
2019-02-19T05:44:28.089Z,7.15
2019-02-19T05:45:28.076Z,7.15
2019-02-19T05:46:28.069Z,7.07
2019-02-19T05:47:28.095Z,7.08
2019-02-19T05:48:28.052Z,7.16
2019-02-19T05:49:28.031Z,7.08
2019-02-19T05:50:28.025Z,7.13
2019-02-19T05:51:28.016Z,7.18
2019-02-19T05:52:27.999Z,7.18
2019-02-19T05:53:28.026Z,7.19
2019-02-19T05:54:28.024Z,7.18
2019-02-19T05:55:27.965Z,7.15
2019-02-19T05:56:27.958Z,7.19
2019-02-19T05:57:27.943Z,7.11
2019-02-19T05:58:27.932Z,7.08
2019-02-19T05:59:27.923Z,6.97
2019-02-19T06:00:27.954Z,7.04
2019-02-19T06:01:27.900Z,6.96
2019-02-19T06:02:27.931Z,6.96
2019-02-19T06:03:27.876Z,7.01
2019-02-19T06:04:27.867Z,7.01
2019-02-19T06:05:27.881Z,7.01
2019-02-19T06:06:27.851Z,6.96
2019-02-19T06:07:27.840Z,6.92
2019-02-19T06:08:27.865Z,7.00
2019-02-19T06:09:27.816Z,7.03
2019-02-19T06:10:27.805Z,6.91
2019-02-19T06:11:27.790Z,6.70
2019-02-19T06:12:27.785Z,6.57
2019-02-19T06:13:27.817Z,6.61
2019-02-19T06:14:27.777Z,6.49
2019-02-19T06:15:27.744Z,6.55
2019-02-19T06:16:27.774Z,6.61
2019-02-19T06:17:27.767Z,6.57
2019-02-19T06:18:27.716Z,6.61
2019-02-19T06:19:27.702Z,6.61
2019-02-19T06:20:27.754Z,6.57
2019-02-19T06:21:27.688Z,6.65
2019-02-19T06:22:27.669Z,6.61
2019-02-19T06:23:27.707Z,6.74
2019-02-19T06:24:27.650Z,6.63
2019-02-19T06:25:27.637Z,6.61
2019-02-19T06:26:27.636Z,6.63
2019-02-19T06:27:27.615Z,6.60
2019-02-19T06:28:27.603Z,6.68
2019-02-19T06:29:27.637Z,6.64
2019-02-19T06:30:27.580Z,6.60
2019-02-19T06:31:27.572Z,6.64
2019-02-19T06:32:27.561Z,6.63
2019-02-19T06:33:27.555Z,6.49
2019-02-19T06:34:27.556Z,6.49
2019-02-19T06:35:27.574Z,6.49
2019-02-19T06:36:27.511Z,6.53
2019-02-19T06:37:27.504Z,6.50
2019-02-19T06:38:27.500Z,6.65
2019-02-19T06:39:27.539Z,6.71
2019-02-19T06:40:27.522Z,6.79
2019-02-19T06:41:27.501Z,6.89
2019-02-19T06:42:27.446Z,7.01
2019-02-19T06:43:27.466Z,7.03
2019-02-19T06:44:27.452Z,6.96
2019-02-19T06:45:27.426Z,6.97
2019-02-19T06:46:27.409Z,6.93
2019-02-19T06:47:27.442Z,6.96
2019-02-19T06:48:27.382Z,7.03
2019-02-19T06:49:27.367Z,6.97
2019-02-19T06:50:27.411Z,7.00
2019-02-19T06:51:27.351Z,7.08
2019-02-19T06:52:27.392Z,7.07
2019-02-19T06:53:27.373Z,7.15
2019-02-19T06:54:27.505Z,7.04
2019-02-19T06:55:27.328Z,7.07
2019-02-19T06:56:27.311Z,7.11
2019-02-19T06:57:27.336Z,7.19
2019-02-19T06:58:27.672Z,7.29
2019-02-19T06:59:27.312Z,7.33
2019-02-19T07:00:27.274Z,7.31
2019-02-19T07:01:27.264Z,7.43
2019-02-19T07:02:27.257Z,7.44
2019-02-19T07:03:27.286Z,7.42
2019-02-19T07:04:27.257Z,7.40
2019-02-19T07:05:27.203Z,7.37
2019-02-19T07:06:27.232Z,7.28
2019-02-19T07:07:27.189Z,7.28
2019-02-19T07:08:27.167Z,7.31
2019-02-19T07:09:27.161Z,7.24
2019-02-19T07:10:27.166Z,7.18
2019-02-19T07:11:27.168Z,7.21
2019-02-19T07:12:27.110Z,7.29
2019-02-19T07:13:27.130Z,7.31
2019-02-19T07:14:27.191Z,7.36
2019-02-19T07:15:27.119Z,7.29
2019-02-19T07:16:27.068Z,7.34
2019-02-19T07:17:27.063Z,7.33
2019-02-19T07:18:27.083Z,7.26
2019-02-19T07:19:27.048Z,7.31
2019-02-19T07:20:27.041Z,7.34
2019-02-19T07:21:27.061Z,7.33
2019-02-19T07:22:27.005Z,7.21
2019-02-19T07:23:27.006Z,7.16
2019-02-19T07:24:26.975Z,7.11
2019-02-19T07:25:26.965Z,7.10
2019-02-19T07:26:27.027Z,7.06
2019-02-19T07:27:26.941Z,7.10
2019-02-19T07:28:26.942Z,6.99
2019-02-19T07:29:26.924Z,7.01
2019-02-19T07:30:26.911Z,6.97
2019-02-19T07:31:26.969Z,7.01
2019-02-19T07:32:26.932Z,7.04
2019-02-19T07:33:26.875Z,7.06
2019-02-19T07:34:26.884Z,7.10
2019-02-19T07:35:26.859Z,7.24
2019-02-19T07:36:26.840Z,7.18
2019-02-19T07:37:26.878Z,7.25
2019-02-19T07:38:27.090Z,7.18
2019-02-19T07:39:26.820Z,7.21
2019-02-19T07:40:26.910Z,7.26
2019-02-19T07:41:26.988Z,7.36
2019-02-19T07:42:26.779Z,7.36
2019-02-19T07:43:26.846Z,7.46
2019-02-19T07:44:26.761Z,7.52
2019-02-19T07:45:27.372Z,7.61
2019-02-19T07:46:26.748Z,7.64
2019-02-19T07:47:26.975Z,7.68
2019-02-19T07:48:26.722Z,7.68
2019-02-19T07:49:26.707Z,7.77
2019-02-19T07:50:26.922Z,7.83
2019-02-19T07:51:26.757Z,7.77
2019-02-19T07:52:26.718Z,7.73
2019-02-19T07:53:26.898Z,7.80
2019-02-19T07:54:26.642Z,7.80
2019-02-19T07:55:26.781Z,7.77
2019-02-19T07:56:26.618Z,7.86
2019-02-19T07:57:26.636Z,7.88
2019-02-19T07:58:26.788Z,7.94
2019-02-19T07:59:26.603Z,7.88
2019-02-19T08:00:26.575Z,7.96
2019-02-19T08:01:26.593Z,7.95
2019-02-19T08:02:26.592Z,7.86
2019-02-19T08:03:26.652Z,7.73
2019-02-19T08:04:26.630Z,7.73
2019-02-19T08:05:26.771Z,7.66
2019-02-19T08:06:26.711Z,7.50
2019-02-19T08:07:26.513Z,7.55
2019-02-19T08:08:26.504Z,7.54
2019-02-19T08:09:26.691Z,7.64
2019-02-19T08:10:26.504Z,7.73
2019-02-19T08:11:26.496Z,7.78
2019-02-19T08:12:26.438Z,7.76
2019-02-19T08:13:26.441Z,7.73
2019-02-19T08:14:26.419Z,7.92
2019-02-19T08:15:26.477Z,7.95
2019-02-19T08:16:26.398Z,7.92
2019-02-19T08:17:33.080Z,7.92
2019-02-19T08:18:27.382Z,8.01
2019-02-19T08:19:26.361Z,8.02
2019-02-19T08:20:26.349Z,8.04
2019-02-19T08:21:26.414Z,8.13
2019-02-19T08:22:26.340Z,8.13
2019-02-19T08:23:26.356Z,8.14
2019-02-19T08:24:26.325Z,8.23
2019-02-19T08:25:26.293Z,8.12
2019-02-19T08:26:26.278Z,8.04
2019-02-19T08:27:26.314Z,8.02
2019-02-19T08:28:26.259Z,8.13
2019-02-19T08:29:26.289Z,8.16
2019-02-19T08:30:26.268Z,8.24
2019-02-19T08:31:26.243Z,8.31
2019-02-19T08:32:26.278Z,8.28
2019-02-19T08:33:26.241Z,8.28
2019-02-19T08:34:26.258Z,8.29
2019-02-19T08:35:26.200Z,8.28
2019-02-19T08:36:26.195Z,8.19
2019-02-19T08:37:26.170Z,8.31
2019-02-19T08:38:26.175Z,8.31
2019-02-19T08:39:26.268Z,8.34
2019-02-19T08:40:26.189Z,8.47
2019-02-19T08:41:26.131Z,8.49
2019-02-19T08:42:26.106Z,8.39
2019-02-19T08:43:26.292Z,8.37
2019-02-19T08:44:27.994Z,8.39
2019-02-19T08:45:26.345Z,8.52
2019-02-19T08:46:28.605Z,8.41
2019-02-19T08:47:26.669Z,8.39
2019-02-19T08:48:26.471Z,8.39
2019-02-19T08:49:26.166Z,8.49
2019-02-19T08:50:26.085Z,8.60
2019-02-19T08:51:26.265Z,8.63
2019-02-19T08:52:26.113Z,8.70
2019-02-19T08:53:26.056Z,8.75
2019-02-19T08:54:26.020Z,8.67
2019-02-19T08:55:25.994Z,8.56
2019-02-19T08:56:25.956Z,8.65
2019-02-19T08:57:26.013Z,8.57
2019-02-19T08:58:25.932Z,8.68
2019-02-19T08:59:26.029Z,8.57
2019-02-19T09:00:25.935Z,8.68
2019-02-19T09:01:25.886Z,8.74
2019-02-19T09:02:25.876Z,8.86
2019-02-19T09:03:25.911Z,8.86
2019-02-19T09:04:25.895Z,8.80
2019-02-19T09:05:25.852Z,8.88
2019-02-19T09:06:27.583Z,8.88
2019-02-19T09:07:25.929Z,8.90
2019-02-19T09:08:27.800Z,9.09
2019-02-19T09:09:25.825Z,9.03
2019-02-19T09:10:25.862Z,8.95
2019-02-19T09:11:25.945Z,9.01
2019-02-19T09:12:25.853Z,8.96
2019-02-19T09:13:25.810Z,9.11
2019-02-19T09:14:25.762Z,8.95
2019-02-19T09:15:25.733Z,9.03
2019-02-19T09:16:25.721Z,8.88
2019-02-19T09:17:25.715Z,8.93
2019-02-19T09:18:26.446Z,8.83
2019-02-19T09:19:25.693Z,8.96
2019-02-19T09:20:25.728Z,9.06
2019-02-19T09:21:25.972Z,9.12
2019-02-19T09:22:25.673Z,9.18
2019-02-19T09:23:26.226Z,9.12
2019-02-19T09:24:26.345Z,9.24
2019-02-19T09:25:25.753Z,9.23
2019-02-19T09:26:25.798Z,9.33
2019-02-19T09:27:25.664Z,9.45
2019-02-19T09:28:26.574Z,9.50
2019-02-19T09:29:25.639Z,9.47
2019-02-19T09:30:28.333Z,9.47
2019-02-19T09:31:25.600Z,9.60
2019-02-19T09:32:25.618Z,9.73
2019-02-19T09:33:25.562Z,9.75
2019-02-19T09:34:25.559Z,9.94
2019-02-19T09:35:25.744Z,9.83
2019-02-19T09:36:25.494Z,9.83
2019-02-19T09:37:25.561Z,9.93
2019-02-19T09:38:25.498Z,10.05
2019-02-19T09:39:25.674Z,10.03
2019-02-19T09:40:25.451Z,10.06
2019-02-19T09:41:25.606Z,10.12
2019-02-19T09:42:25.725Z,10.24
2019-02-19T09:43:25.491Z,10.27
2019-02-19T09:44:25.403Z,10.35
2019-02-19T09:45:25.463Z,10.28
2019-02-19T09:46:25.444Z,10.34
2019-02-19T09:47:25.494Z,10.30
2019-02-19T09:48:25.391Z,10.28
2019-02-19T09:49:25.354Z,10.26
2019-02-19T09:50:25.357Z,10.23
2019-02-19T09:51:25.526Z,10.20
2019-02-19T09:52:25.336Z,10.20
2019-02-19T09:53:25.304Z,10.12
2019-02-19T09:54:25.357Z,10.10
2019-02-19T09:55:26.329Z,10.01
2019-02-19T09:56:25.257Z,10.03
2019-02-19T09:57:25.482Z,10.06
2019-02-19T09:58:25.276Z,10.01
2019-02-19T09:59:25.491Z,9.85
2019-02-19T10:00:25.920Z,9.91
2019-02-19T10:01:25.456Z,9.98
2019-02-19T10:02:25.503Z,10.03
2019-02-19T10:03:25.193Z,9.99
2019-02-19T10:04:25.400Z,10.08
2019-02-19T10:05:25.162Z,10.14
2019-02-19T10:06:25.429Z,10.18
2019-02-19T10:07:25.160Z,10.20
2019-02-19T10:08:25.136Z,10.27
2019-02-19T10:09:25.109Z,10.26
2019-02-19T10:10:25.570Z,10.28
2019-02-19T10:11:25.220Z,10.10
2019-02-19T10:12:25.287Z,10.06
2019-02-19T10:13:26.280Z,10.10
2019-02-19T10:14:25.154Z,10.12
2019-02-19T10:15:25.065Z,10.03
2019-02-19T10:16:25.104Z,10.12
2019-02-19T10:17:25.330Z,10.10
2019-02-19T10:18:25.871Z,10.10
2019-02-19T10:19:26.096Z,10.16
2019-02-19T10:20:25.006Z,10.23
2019-02-19T10:21:24.973Z,10.31
2019-02-19T10:22:25.362Z,10.46
2019-02-19T10:23:25.108Z,10.43
2019-02-19T10:24:25.316Z,10.54
2019-02-19T10:25:24.986Z,10.36
2019-02-19T10:26:24.959Z,10.48
2019-02-19T10:27:24.968Z,10.45
2019-02-19T10:28:24.912Z,10.43
2019-02-19T10:29:25.066Z,10.42
2019-02-19T10:30:24.976Z,10.45
2019-02-19T10:31:25.299Z,10.31
2019-02-19T10:32:24.953Z,10.31
2019-02-19T10:33:24.995Z,10.28
2019-02-19T10:34:24.857Z,10.27
2019-02-19T10:35:26.318Z,10.23
2019-02-19T10:36:25.135Z,10.27
2019-02-19T10:37:24.789Z,10.34
2019-02-19T10:38:24.789Z,10.26
2019-02-19T10:39:24.824Z,10.27
2019-02-19T10:40:24.812Z,10.21
2019-02-19T10:41:25.581Z,10.31
2019-02-19T10:42:24.816Z,10.23
2019-02-19T10:43:24.786Z,10.20
2019-02-19T10:44:24.823Z,10.27
2019-02-19T10:45:24.697Z,10.17
2019-02-19T10:46:24.712Z,10.12
2019-02-19T10:47:24.734Z,10.16
2019-02-19T10:48:24.707Z,10.28
2019-02-19T10:49:24.693Z,10.28
2019-02-19T10:50:24.659Z,10.26
2019-02-19T10:51:24.688Z,10.27
2019-02-19T10:52:24.641Z,10.34
2019-02-19T10:53:24.607Z,10.45
2019-02-19T10:54:24.598Z,10.49
2019-02-19T10:55:24.675Z,10.55
2019-02-19T10:56:24.603Z,10.61
2019-02-19T10:57:24.628Z,10.64
2019-02-19T10:58:24.553Z,10.64
2019-02-19T10:59:24.624Z,10.64
2019-02-19T11:00:24.577Z,10.78
2019-02-19T11:01:27.262Z,10.80
2019-02-19T11:02:24.608Z,10.79
2019-02-19T11:03:24.599Z,10.87
2019-02-19T11:04:24.486Z,10.91
2019-02-19T11:05:24.470Z,10.90
2019-02-19T11:06:24.504Z,10.98
2019-02-19T11:07:24.469Z,11.01
2019-02-19T11:08:24.527Z,11.00
2019-02-19T11:09:24.470Z,11.08
2019-02-19T11:10:24.417Z,11.13
2019-02-19T11:11:24.440Z,11.20
2019-02-19T11:12:24.531Z,11.31
2019-02-19T11:13:24.502Z,11.41
2019-02-19T11:14:25.381Z,11.33
2019-02-19T11:15:24.397Z,11.30
2019-02-19T11:16:24.355Z,11.43
2019-02-19T11:17:24.333Z,11.41
2019-02-19T11:18:28.551Z,11.46
2019-02-19T11:19:24.444Z,11.43
2019-02-19T11:20:25.259Z,11.51
2019-02-19T11:21:24.629Z,11.41
2019-02-19T11:22:26.012Z,11.48
2019-02-19T11:23:24.452Z,11.49
2019-02-19T11:24:24.259Z,11.55
2019-02-19T11:25:24.296Z,11.51
2019-02-19T11:26:24.259Z,11.36
2019-02-19T11:27:24.787Z,11.41
2019-02-19T11:28:24.233Z,11.49
2019-02-19T11:29:24.203Z,11.46
2019-02-19T11:30:24.301Z,11.52
2019-02-19T11:31:24.338Z,11.46
2019-02-19T11:32:24.201Z,11.51
2019-02-19T11:33:24.185Z,11.51
2019-02-19T11:34:24.292Z,11.61
2019-02-19T11:35:24.138Z,11.46
2019-02-19T11:36:24.122Z,11.49
2019-02-19T11:37:24.156Z,11.66
2019-02-19T11:38:24.099Z,11.69
2019-02-19T11:39:24.114Z,11.74
2019-02-19T11:40:24.077Z,11.76
2019-02-19T11:41:24.091Z,11.77
2019-02-19T11:42:24.121Z,11.73
2019-02-19T11:43:24.141Z,11.82
2019-02-19T11:44:24.038Z,11.76
2019-02-19T11:45:24.032Z,11.73
2019-02-19T11:46:24.076Z,11.70
2019-02-19T11:47:26.619Z,11.77
2019-02-19T11:48:24.821Z,11.67
2019-02-19T11:49:24.083Z,11.62
2019-02-19T11:50:23.963Z,11.56
2019-02-19T11:51:23.948Z,11.54
2019-02-19T11:52:23.977Z,11.56
2019-02-19T11:53:24.012Z,11.58
2019-02-19T11:54:23.935Z,11.55
2019-02-19T11:55:24.277Z,11.70
2019-02-19T11:56:23.934Z,11.64
2019-02-19T11:57:24.004Z,11.71
2019-02-19T11:58:23.865Z,11.69
2019-02-19T11:59:23.859Z,11.82
2019-02-19T12:00:23.858Z,11.80
2019-02-19T12:01:23.834Z,11.88
2019-02-19T12:02:32.432Z,11.88
2019-02-19T12:03:24.816Z,12.00
2019-02-19T12:04:23.849Z,11.93
2019-02-19T12:05:23.796Z,11.99
2019-02-19T12:06:23.794Z,12.05
2019-02-19T12:07:23.823Z,12.11
2019-02-19T12:08:23.764Z,12.10
2019-02-19T12:09:23.814Z,12.08
2019-02-19T12:10:25.227Z,12.11
2019-02-19T12:11:23.726Z,11.91
2019-02-19T12:12:23.906Z,11.74
2019-02-19T12:13:23.742Z,11.73
2019-02-19T12:14:23.721Z,11.88
2019-02-19T12:15:23.737Z,11.79
2019-02-19T12:16:23.686Z,11.76
2019-02-19T12:17:23.717Z,11.74
2019-02-19T12:18:23.755Z,11.77
2019-02-19T12:19:23.661Z,11.74
2019-02-19T12:20:23.625Z,11.88
2019-02-19T12:21:23.659Z,11.88
2019-02-19T12:22:23.598Z,11.93
2019-02-19T12:23:23.709Z,11.91
2019-02-19T12:24:23.584Z,12.07
2019-02-19T12:25:23.563Z,11.95
2019-02-19T12:26:23.585Z,11.95
2019-02-19T12:27:23.759Z,12.03
2019-02-19T12:28:23.563Z,12.10
2019-02-19T12:29:23.563Z,12.04
2019-02-19T12:30:23.541Z,12.05
2019-02-19T12:31:23.544Z,12.00
2019-02-19T12:32:23.540Z,12.10
2019-02-19T12:33:23.476Z,12.14
2019-02-19T12:34:23.541Z,12.10
2019-02-19T12:35:23.450Z,12.17
2019-02-19T12:36:23.511Z,12.29
2019-02-19T12:37:23.426Z,12.38
2019-02-19T12:38:23.573Z,12.43
2019-02-19T12:39:23.415Z,12.43
2019-02-19T12:40:23.496Z,12.47
2019-02-19T12:41:23.379Z,12.43
2019-02-19T12:42:23.482Z,12.32
2019-02-19T12:43:23.359Z,12.32
2019-02-19T12:44:23.513Z,12.21
2019-02-19T12:45:23.374Z,12.21
2019-02-19T12:46:23.340Z,12.21
2019-02-19T12:47:23.371Z,12.18
2019-02-19T12:48:23.364Z,12.25
2019-02-19T12:49:23.340Z,12.26
2019-02-19T12:50:23.287Z,12.26
2019-02-19T12:51:26.445Z,12.28
2019-02-19T12:52:23.322Z,12.21
2019-02-19T12:53:23.294Z,12.15
2019-02-19T12:54:23.355Z,12.22
2019-02-19T12:55:23.792Z,12.23
2019-02-19T12:56:23.283Z,12.30
2019-02-19T12:57:23.218Z,12.36
2019-02-19T12:58:23.210Z,12.44
2019-02-19T12:59:23.342Z,12.48
2019-02-19T13:00:23.231Z,12.53
2019-02-19T13:01:23.455Z,12.62
2019-02-19T13:02:23.184Z,12.76
2019-02-19T13:03:23.140Z,12.72
2019-02-19T13:04:23.186Z,12.73
2019-02-19T13:05:23.163Z,12.73
2019-02-19T13:06:23.154Z,12.73
2019-02-19T13:07:23.139Z,12.72
2019-02-19T13:08:23.113Z,12.71
2019-02-19T13:09:23.069Z,12.83
2019-02-19T13:10:23.057Z,12.91
2019-02-19T13:11:23.054Z,12.77